sensor_id;sensor_type;location;lat;lon;timestamp;P1;durP1;ratioP1;P2;durP2;ratioP2
53642;SDS011;39546;45.534;12.048;2023-06-14T00:00:57;4.50;;;2.70;;
53642;SDS011;39546;45.534;12.048;2023-06-14T00:07:00;4.65;;;3.12;;
53642;SDS011;39546;45.534;12.048;2023-06-14T00:13:02;5.65;;;3.47;;
53642;SDS011;39546;45.534;12.048;2023-06-14T00:19:06;4.00;;;2.47;;
53642;SDS011;39546;45.534;12.048;2023-06-14T00:25:08;4.45;;;2.90;;
53642;SDS011;39546;45.534;12.048;2023-06-14T00:31:10;3.72;;;2.30;;
53642;SDS011;39546;45.534;12.048;2023-06-14T00:37:12;7.35;;;3.10;;
53642;SDS011;39546;45.534;12.048;2023-06-14T00:43:14;5.32;;;2.58;;
53642;SDS011;39546;45.534;12.048;2023-06-14T00:49:18;5.32;;;2.53;;
53642;SDS011;39546;45.534;12.048;2023-06-14T00:55:21;4.82;;;2.87;;
53642;SDS011;39546;45.534;12.048;2023-06-14T01:01:24;4.43;;;2.65;;
53642;SDS011;39546;45.534;12.048;2023-06-14T01:13:40;5.55;;;2.08;;
53642;SDS011;39546;45.534;12.048;2023-06-14T01:19:48;2.60;;;2.12;;
53642;SDS011;39546;45.534;12.048;2023-06-14T01:25:50;3.28;;;2.12;;
53642;SDS011;39546;45.534;12.048;2023-06-14T01:31:56;2.92;;;2.03;;
53642;SDS011;39546;45.534;12.048;2023-06-14T01:37:58;5.78;;;2.90;;
53642;SDS011;39546;45.534;12.048;2023-06-14T01:44:04;3.80;;;3.10;;
53642;SDS011;39546;45.534;12.048;2023-06-14T01:50:08;5.57;;;2.42;;
53642;SDS011;39546;45.534;12.048;2023-06-14T01:56:10;5.72;;;3.55;;
53642;SDS011;39546;45.534;12.048;2023-06-14T02:02:13;3.85;;;2.85;;
53642;SDS011;39546;45.534;12.048;2023-06-14T02:08:16;5.72;;;3.70;;
53642;SDS011;39546;45.534;12.048;2023-06-14T02:14:18;5.62;;;2.97;;
53642;SDS011;39546;45.534;12.048;2023-06-14T02:20:20;6.37;;;3.72;;
53642;SDS011;39546;45.534;12.048;2023-06-14T02:26:22;5.50;;;3.58;;
53642;SDS011;39546;45.534;12.048;2023-06-14T02:32:24;5.90;;;3.40;;
53642;SDS011;39546;45.534;12.048;2023-06-14T02:38:27;7.20;;;4.60;;
53642;SDS011;39546;45.534;12.048;2023-06-14T02:44:31;6.28;;;4.28;;
53642;SDS011;39546;45.534;12.048;2023-06-14T02:50:40;6.47;;;4.45;;
53642;SDS011;39546;45.534;12.048;2023-06-14T02:56:42;7.30;;;4.60;;
53642;SDS011;39546;45.534;12.048;2023-06-14T03:02:45;5.53;;;4.00;;
53642;SDS011;39546;45.534;12.048;2023-06-14T03:08:47;6.18;;;4.32;;
53642;SDS011;39546;45.534;12.048;2023-06-14T03:14:50;6.93;;;3.55;;
53642;SDS011;39546;45.534;12.048;2023-06-14T03:20:54;5.87;;;3.80;;
53642;SDS011;39546;45.534;12.048;2023-06-14T03:26:58;5.37;;;3.28;;
53642;SDS011;39546;45.534;12.048;2023-06-14T03:33:01;4.78;;;3.28;;
53642;SDS011;39546;45.534;12.048;2023-06-14T03:39:04;5.50;;;3.58;;
53642;SDS011;39546;45.534;12.048;2023-06-14T03:45:06;5.05;;;3.15;;
53642;SDS011;39546;45.534;12.048;2023-06-14T03:51:09;4.97;;;3.40;;
53642;SDS011;39546;45.534;12.048;2023-06-14T03:57:13;3.92;;;3.12;;
53642;SDS011;39546;45.534;12.048;2023-06-14T04:03:16;6.85;;;3.55;;
53642;SDS011;39546;45.534;12.048;2023-06-14T04:09:18;6.82;;;3.33;;
53642;SDS011;39546;45.534;12.048;2023-06-14T04:15:20;4.57;;;3.10;;
53642;SDS011;39546;45.534;12.048;2023-06-14T04:21:23;5.72;;;3.50;;
53642;SDS011;39546;45.534;12.048;2023-06-14T04:27:31;3.95;;;2.95;;
53642;SDS011;39546;45.534;12.048;2023-06-14T04:33:38;5.15;;;3.22;;
53642;SDS011;39546;45.534;12.048;2023-06-14T04:39:45;9.45;;;4.25;;
53642;SDS011;39546;45.534;12.048;2023-06-14T04:45:47;5.62;;;3.65;;
53642;SDS011;39546;45.534;12.048;2023-06-14T04:51:50;5.18;;;3.37;;
53642;SDS011;39546;45.534;12.048;2023-06-14T04:57:59;6.30;;;3.95;;
53642;SDS011;39546;45.534;12.048;2023-06-14T05:04:01;5.87;;;3.83;;
53642;SDS011;39546;45.534;12.048;2023-06-14T05:10:04;5.50;;;3.87;;
53642;SDS011;39546;45.534;12.048;2023-06-14T05:16:07;4.82;;;3.15;;
53642;SDS011;39546;45.534;12.048;2023-06-14T05:22:10;7.00;;;2.87;;
53642;SDS011;39546;45.534;12.048;2023-06-14T05:28:12;5.75;;;3.33;;
53642;SDS011;39546;45.534;12.048;2023-06-14T05:34:14;4.70;;;2.55;;
53642;SDS011;39546;45.534;12.048;2023-06-14T05:40:15;4.82;;;2.60;;
53642;SDS011;39546;45.534;12.048;2023-06-14T05:46:18;5.55;;;3.67;;
53642;SDS011;39546;45.534;12.048;2023-06-14T05:52:25;3.30;;;2.17;;
53642;SDS011;39546;45.534;12.048;2023-06-14T05:58:27;4.22;;;2.45;;
53642;SDS011;39546;45.534;12.048;2023-06-14T06:04:29;4.18;;;2.85;;
53642;SDS011;39546;45.534;12.048;2023-06-14T06:10:32;3.65;;;2.42;;
53642;SDS011;39546;45.534;12.048;2023-06-14T06:16:34;4.30;;;2.65;;
53642;SDS011;39546;45.534;12.048;2023-06-14T06:22:37;4.25;;;2.80;;
53642;SDS011;39546;45.534;12.048;2023-06-14T06:28:39;4.90;;;3.00;;
53642;SDS011;39546;45.534;12.048;2023-06-14T06:34:41;6.97;;;2.85;;
53642;SDS011;39546;45.534;12.048;2023-06-14T06:40:44;4.40;;;3.03;;
53642;SDS011;39546;45.534;12.048;2023-06-14T06:46:46;5.35;;;3.42;;
53642;SDS011;39546;45.534;12.048;2023-06-14T06:52:48;5.65;;;3.92;;
53642;SDS011;39546;45.534;12.048;2023-06-14T06:58:50;5.03;;;3.22;;
53642;SDS011;39546;45.534;12.048;2023-06-14T07:04:52;4.25;;;2.37;;
53642;SDS011;39546;45.534;12.048;2023-06-14T07:10:54;7.12;;;3.22;;
53642;SDS011;39546;45.534;12.048;2023-06-14T07:16:56;4.40;;;2.97;;
53642;SDS011;39546;45.534;12.048;2023-06-14T07:22:58;10.60;;;3.25;;
53642;SDS011;39546;45.534;12.048;2023-06-14T07:29:01;3.42;;;2.50;;
53642;SDS011;39546;45.534;12.048;2023-06-14T07:35:03;7.32;;;3.47;;
53642;SDS011;39546;45.534;12.048;2023-06-14T07:41:09;3.58;;;2.25;;
53642;SDS011;39546;45.534;12.048;2023-06-14T07:47:11;4.50;;;3.22;;
53642;SDS011;39546;45.534;12.048;2023-06-14T07:53:13;3.83;;;1.92;;
53642;SDS011;39546;45.534;12.048;2023-06-14T07:59:15;5.28;;;3.10;;
53642;SDS011;39546;45.534;12.048;2023-06-14T08:05:17;4.90;;;3.08;;
53642;SDS011;39546;45.534;12.048;2023-06-14T08:11:19;5.12;;;3.10;;
53642;SDS011;39546;45.534;12.048;2023-06-14T08:17:22;3.20;;;2.17;;
53642;SDS011;39546;45.534;12.048;2023-06-14T08:23:24;6.87;;;2.97;;
53642;SDS011;39546;45.534;12.048;2023-06-14T08:29:26;3.80;;;2.00;;
53642;SDS011;39546;45.534;12.048;2023-06-14T08:35:30;3.75;;;2.35;;
53642;SDS011;39546;45.534;12.048;2023-06-14T08:41:32;6.43;;;2.67;;
53642;SDS011;39546;45.534;12.048;2023-06-14T08:47:35;5.12;;;2.47;;
53642;SDS011;39546;45.534;12.048;2023-06-14T08:53:38;3.80;;;2.50;;
53642;SDS011;39546;45.534;12.048;2023-06-14T08:59:47;4.57;;;2.87;;
53642;SDS011;39546;45.534;12.048;2023-06-14T09:05:54;6.18;;;2.70;;
53642;SDS011;39546;45.534;12.048;2023-06-14T09:12:00;11.20;;;2.90;;
53642;SDS011;39546;45.534;12.048;2023-06-14T09:18:02;17.52;;;2.42;;
53642;SDS011;39546;45.534;12.048;2023-06-14T09:24:04;4.45;;;3.12;;
53642;SDS011;39546;45.534;12.048;2023-06-14T09:30:08;3.55;;;2.65;;
53642;SDS011;39546;45.534;12.048;2023-06-14T09:36:11;6.32;;;2.85;;
53642;SDS011;39546;45.534;12.048;2023-06-14T09:42:17;3.72;;;2.22;;
53642;SDS011;39546;45.534;12.048;2023-06-14T09:48:24;3.60;;;2.05;;
53642;SDS011;39546;45.534;12.048;2023-06-14T09:54:26;5.00;;;3.25;;
53642;SDS011;39546;45.534;12.048;2023-06-14T10:00:30;4.60;;;2.80;;
53642;SDS011;39546;45.534;12.048;2023-06-14T10:06:39;10.48;;;3.90;;
53642;SDS011;39546;45.534;12.048;2023-06-14T10:12:42;6.12;;;3.95;;
53642;SDS011;39546;45.534;12.048;2023-06-14T10:18:49;3.60;;;2.30;;
53642;SDS011;39546;45.534;12.048;2023-06-14T10:25:01;4.12;;;2.55;;
53642;SDS011;39546;45.534;12.048;2023-06-14T10:37:12;4.43;;;2.75;;
53642;SDS011;39546;45.534;12.048;2023-06-14T10:43:24;5.37;;;3.42;;
53642;SDS011;39546;45.534;12.048;2023-06-14T10:49:40;4.00;;;3.05;;
53642;SDS011;39546;45.534;12.048;2023-06-14T10:55:48;4.22;;;2.60;;
53642;SDS011;39546;45.534;12.048;2023-06-14T11:15:09;4.35;;;2.72;;
53642;SDS011;39546;45.534;12.048;2023-06-14T11:21:14;4.15;;;2.50;;
53642;SDS011;39546;45.534;12.048;2023-06-14T11:27:42;4.05;;;2.33;;
53642;SDS011;39546;45.534;12.048;2023-06-14T11:33:49;2.50;;;2.05;;
53642;SDS011;39546;45.534;12.048;2023-06-14T11:39:51;6.18;;;3.28;;
53642;SDS011;39546;45.534;12.048;2023-06-14T11:45:53;5.90;;;2.70;;
53642;SDS011;39546;45.534;12.048;2023-06-14T11:51:55;3.70;;;2.70;;
53642;SDS011;39546;45.534;12.048;2023-06-14T11:57:57;4.62;;;2.90;;
53642;SDS011;39546;45.534;12.048;2023-06-14T12:04:01;4.10;;;2.22;;
53642;SDS011;39546;45.534;12.048;2023-06-14T12:10:41;5.18;;;2.70;;
53642;SDS011;39546;45.534;12.048;2023-06-14T12:16:44;6.35;;;3.80;;
53642;SDS011;39546;45.534;12.048;2023-06-14T12:22:50;9.18;;;2.92;;
53642;SDS011;39546;45.534;12.048;2023-06-14T12:28:59;5.37;;;3.60;;
53642;SDS011;39546;45.534;12.048;2023-06-14T12:35:01;4.62;;;2.80;;
53642;SDS011;39546;45.534;12.048;2023-06-14T12:41:04;6.72;;;2.50;;
53642;SDS011;39546;45.534;12.048;2023-06-14T12:47:07;7.05;;;3.55;;
53642;SDS011;39546;45.534;12.048;2023-06-14T12:53:09;3.92;;;2.47;;
53642;SDS011;39546;45.534;12.048;2023-06-14T12:59:12;4.15;;;2.80;;
53642;SDS011;39546;45.534;12.048;2023-06-14T13:05:14;3.10;;;2.08;;
53642;SDS011;39546;45.534;12.048;2023-06-14T13:11:23;5.22;;;2.37;;
53642;SDS011;39546;45.534;12.048;2023-06-14T13:18:04;5.18;;;3.42;;
53642;SDS011;39546;45.534;12.048;2023-06-14T13:24:17;4.00;;;2.45;;
53642;SDS011;39546;45.534;12.048;2023-06-14T13:30:24;4.68;;;2.72;;
53642;SDS011;39546;45.534;12.048;2023-06-14T13:36:26;4.25;;;2.70;;
53642;SDS011;39546;45.534;12.048;2023-06-14T13:42:28;3.20;;;2.05;;
53642;SDS011;39546;45.534;12.048;2023-06-14T13:48:32;7.82;;;2.62;;
53642;SDS011;39546;45.534;12.048;2023-06-14T13:54:34;5.03;;;2.50;;
53642;SDS011;39546;45.534;12.048;2023-06-14T14:00:37;1.87;;;1.52;;
53642;SDS011;39546;45.534;12.048;2023-06-14T14:06:41;4.90;;;2.15;;
53642;SDS011;39546;45.534;12.048;2023-06-14T14:12:47;6.53;;;3.72;;
53642;SDS011;39546;45.534;12.048;2023-06-14T14:18:49;4.45;;;3.05;;
53642;SDS011;39546;45.534;12.048;2023-06-14T14:24:51;3.92;;;2.37;;
53642;SDS011;39546;45.534;12.048;2023-06-14T14:30:53;3.72;;;2.00;;
53642;SDS011;39546;45.534;12.048;2023-06-14T14:36:56;8.00;;;3.12;;
53642;SDS011;39546;45.534;12.048;2023-06-14T14:42:58;5.57;;;2.83;;
53642;SDS011;39546;45.534;12.048;2023-06-14T14:49:00;3.58;;;2.53;;
53642;SDS011;39546;45.534;12.048;2023-06-14T14:55:02;3.75;;;2.12;;
53642;SDS011;39546;45.534;12.048;2023-06-14T15:01:04;7.47;;;3.62;;
53642;SDS011;39546;45.534;12.048;2023-06-14T15:07:07;4.05;;;2.55;;
53642;SDS011;39546;45.534;12.048;2023-06-14T15:19:34;6.07;;;2.80;;
53642;SDS011;39546;45.534;12.048;2023-06-14T15:25:37;3.73;;;2.53;;
53642;SDS011;39546;45.534;12.048;2023-06-14T15:31:39;5.80;;;2.97;;
53642;SDS011;39546;45.534;12.048;2023-06-14T15:37:41;4.22;;;2.65;;
53642;SDS011;39546;45.534;12.048;2023-06-14T15:43:43;3.37;;;2.20;;
53642;SDS011;39546;45.534;12.048;2023-06-14T15:49:45;5.25;;;3.55;;
53642;SDS011;39546;45.534;12.048;2023-06-14T15:55:48;7.62;;;3.08;;
53642;SDS011;39546;45.534;12.048;2023-06-14T16:01:52;6.35;;;2.08;;
53642;SDS011;39546;45.534;12.048;2023-06-14T16:07:55;5.00;;;2.37;;
53642;SDS011;39546;45.534;12.048;2023-06-14T16:13:57;4.55;;;2.50;;
53642;SDS011;39546;45.534;12.048;2023-06-14T16:19:59;4.37;;;2.30;;
53642;SDS011;39546;45.534;12.048;2023-06-14T16:26:01;3.58;;;2.10;;
53642;SDS011;39546;45.534;12.048;2023-06-14T16:32:46;3.22;;;1.80;;
53642;SDS011;39546;45.534;12.048;2023-06-14T16:38:51;4.10;;;2.45;;
53642;SDS011;39546;45.534;12.048;2023-06-14T16:44:53;2.47;;;1.73;;
53642;SDS011;39546;45.534;12.048;2023-06-14T16:50:55;2.75;;;1.50;;
53642;SDS011;39546;45.534;12.048;2023-06-14T16:56:57;5.22;;;2.08;;
53642;SDS011;39546;45.534;12.048;2023-06-14T17:02:59;4.15;;;1.67;;
53642;SDS011;39546;45.534;12.048;2023-06-14T17:09:02;2.83;;;1.65;;
53642;SDS011;39546;45.534;12.048;2023-06-14T17:15:04;2.85;;;1.65;;
53642;SDS011;39546;45.534;12.048;2023-06-14T17:21:07;4.05;;;1.60;;
53642;SDS011;39546;45.534;12.048;2023-06-14T17:27:09;5.60;;;1.80;;
53642;SDS011;39546;45.534;12.048;2023-06-14T17:33:12;2.62;;;1.62;;
53642;SDS011;39546;45.534;12.048;2023-06-14T17:39:14;3.10;;;1.50;;
53642;SDS011;39546;45.534;12.048;2023-06-14T17:45:16;4.07;;;1.75;;
53642;SDS011;39546;45.534;12.048;2023-06-14T17:51:18;3.35;;;1.65;;
53642;SDS011;39546;45.534;12.048;2023-06-14T17:57:21;5.75;;;1.80;;
53642;SDS011;39546;45.534;12.048;2023-06-14T18:03:23;2.47;;;1.30;;
53642;SDS011;39546;45.534;12.048;2023-06-14T18:09:26;2.45;;;1.60;;
53642;SDS011;39546;45.534;12.048;2023-06-14T18:15:28;2.90;;;1.50;;
53642;SDS011;39546;45.534;12.048;2023-06-14T18:21:31;1.52;;;0.93;;
53642;SDS011;39546;45.534;12.048;2023-06-14T18:27:32;1.87;;;0.98;;
53642;SDS011;39546;45.534;12.048;2023-06-14T18:33:35;1.55;;;1.08;;
53642;SDS011;39546;45.534;12.048;2023-06-14T18:39:37;2.03;;;1.25;;
53642;SDS011;39546;45.534;12.048;2023-06-14T18:45:39;1.92;;;1.08;;
53642;SDS011;39546;45.534;12.048;2023-06-14T18:51:41;1.75;;;0.82;;
53642;SDS011;39546;45.534;12.048;2023-06-14T18:57:43;2.55;;;1.45;;
53642;SDS011;39546;45.534;12.048;2023-06-14T19:03:45;1.83;;;1.17;;
53642;SDS011;39546;45.534;12.048;2023-06-14T19:09:47;1.77;;;1.20;;
53642;SDS011;39546;45.534;12.048;2023-06-14T19:15:50;2.45;;;1.40;;
53642;SDS011;39546;45.534;12.048;2023-06-14T19:21:54;2.30;;;1.50;;
53642;SDS011;39546;45.534;12.048;2023-06-14T19:27:56;1.95;;;1.25;;
53642;SDS011;39546;45.534;12.048;2023-06-14T19:33:59;5.87;;;1.98;;
53642;SDS011;39546;45.534;12.048;2023-06-14T19:40:02;1.67;;;1.30;;
53642;SDS011;39546;45.534;12.048;2023-06-14T19:46:05;3.05;;;1.27;;
53642;SDS011;39546;45.534;12.048;2023-06-14T19:52:15;2.53;;;1.45;;
53642;SDS011;39546;45.534;12.048;2023-06-14T19:58:18;3.75;;;1.48;;
53642;SDS011;39546;45.534;12.048;2023-06-14T20:04:20;1.73;;;1.23;;
53642;SDS011;39546;45.534;12.048;2023-06-14T20:10:34;2.97;;;1.67;;
53642;SDS011;39546;45.534;12.048;2023-06-14T20:16:36;1.58;;;1.20;;
53642;SDS011;39546;45.534;12.048;2023-06-14T20:22:38;1.67;;;1.33;;
53642;SDS011;39546;45.534;12.048;2023-06-14T20:35:02;4.75;;;3.25;;
53642;SDS011;39546;45.534;12.048;2023-06-14T20:47:32;5.28;;;3.45;;
53642;SDS011;39546;45.534;12.048;2023-06-14T20:53:34;5.05;;;3.55;;
53642;SDS011;39546;45.534;12.048;2023-06-14T20:59:37;4.57;;;3.17;;
53642;SDS011;39546;45.534;12.048;2023-06-14T21:05:42;6.53;;;4.40;;
53642;SDS011;39546;45.534;12.048;2023-06-14T21:11:44;4.60;;;2.65;;
53642;SDS011;39546;45.534;12.048;2023-06-14T21:17:46;5.28;;;3.75;;
53642;SDS011;39546;45.534;12.048;2023-06-14T21:23:48;6.37;;;4.53;;
53642;SDS011;39546;45.534;12.048;2023-06-14T21:29:50;6.25;;;4.03;;
53642;SDS011;39546;45.534;12.048;2023-06-14T21:35:54;18.35;;;5.10;;
53642;SDS011;39546;45.534;12.048;2023-06-14T21:41:56;6.30;;;4.00;;
53642;SDS011;39546;45.534;12.048;2023-06-14T21:47:58;3.62;;;2.67;;
53642;SDS011;39546;45.534;12.048;2023-06-14T21:54:00;5.47;;;3.75;;
53642;SDS011;39546;45.534;12.048;2023-06-14T22:00:02;4.57;;;3.30;;
53642;SDS011;39546;45.534;12.048;2023-06-14T22:06:05;4.45;;;3.15;;
53642;SDS011;39546;45.534;12.048;2023-06-14T22:12:08;18.92;;;3.35;;
53642;SDS011;39546;45.534;12.048;2023-06-14T22:24:18;6.72;;;2.83;;
53642;SDS011;39546;45.534;12.048;2023-06-14T22:30:20;4.62;;;2.50;;
53642;SDS011;39546;45.534;12.048;2023-06-14T22:36:22;2.42;;;2.00;;
53642;SDS011;39546;45.534;12.048;2023-06-14T22:42:26;3.85;;;2.55;;
53642;SDS011;39546;45.534;12.048;2023-06-14T22:48:28;2.90;;;2.15;;
53642;SDS011;39546;45.534;12.048;2023-06-14T22:54:30;3.55;;;2.37;;
53642;SDS011;39546;45.534;12.048;2023-06-14T23:00:33;4.18;;;1.23;;
53642;SDS011;39546;45.534;12.048;2023-06-14T23:06:35;4.95;;;1.98;;
53642;SDS011;39546;45.534;12.048;2023-06-14T23:12:37;5.05;;;2.67;;
53642;SDS011;39546;45.534;12.048;2023-06-14T23:18:42;3.45;;;2.37;;
53642;SDS011;39546;45.534;12.048;2023-06-14T23:24:44;3.22;;;2.28;;
53642;SDS011;39546;45.534;12.048;2023-06-14T23:30:46;3.67;;;2.12;;
53642;SDS011;39546;45.534;12.048;2023-06-14T23:36:48;1.35;;;0.98;;
53642;SDS011;39546;45.534;12.048;2023-06-14T23:42:50;2.92;;;1.70;;
53642;SDS011;39546;45.534;12.048;2023-06-14T23:48:52;2.35;;;1.60;;
53642;SDS011;39546;45.534;12.048;2023-06-14T23:54:55;3.33;;;1.83;;
